createdAt,value
2018-06-02T00:00:29.529Z,17.23
2018-06-02T00:01:29.501Z,17.20
2018-06-02T00:02:29.478Z,17.26
2018-06-02T00:03:29.454Z,17.33
2018-06-02T00:04:29.430Z,17.34
2018-06-02T00:05:29.401Z,17.33
2018-06-02T00:06:29.383Z,17.27
2018-06-02T00:07:29.353Z,17.20
2018-06-02T00:08:29.331Z,17.24
2018-06-02T00:09:29.310Z,17.08
2018-06-02T00:10:29.279Z,17.22
2018-06-02T00:11:29.254Z,17.09
2018-06-02T00:12:29.233Z,17.12
2018-06-02T00:13:29.211Z,17.12
2018-06-02T00:14:29.184Z,17.16
2018-06-02T00:15:29.153Z,17.11
2018-06-02T00:16:29.136Z,17.06
2018-06-02T00:17:29.110Z,17.11
2018-06-02T00:18:29.086Z,17.14
2018-06-02T00:19:29.062Z,17.01
2018-06-02T00:20:29.038Z,17.01
2018-06-02T00:21:29.020Z,17.19
2018-06-02T00:22:28.982Z,17.09
2018-06-02T00:23:28.964Z,17.09
2018-06-02T00:24:28.935Z,17.04
2018-06-02T00:25:28.907Z,16.94
2018-06-02T00:26:28.891Z,17.09
2018-06-02T00:27:28.864Z,16.96
2018-06-02T00:28:28.842Z,17.05
2018-06-02T00:29:28.814Z,17.02
2018-06-02T00:30:28.793Z,17.01
2018-06-02T00:31:28.785Z,16.93
2018-06-02T00:32:28.743Z,17.09
2018-06-02T00:33:28.716Z,17.05
2018-06-02T00:34:28.693Z,17.06
2018-06-02T00:35:28.666Z,17.16
2018-06-02T00:36:28.640Z,17.06
2018-06-02T00:37:28.618Z,17.08
2018-06-02T00:38:28.600Z,17.04
2018-06-02T00:39:28.566Z,17.02
2018-06-02T00:40:28.545Z,17.05
2018-06-02T00:41:28.515Z,17.05
2018-06-02T00:42:28.489Z,17.02
2018-06-02T00:43:28.477Z,17.04
2018-06-02T00:44:28.439Z,16.99
2018-06-02T00:45:28.418Z,17.05
2018-06-02T00:46:28.400Z,16.89
2018-06-02T00:47:28.370Z,16.90
2018-06-02T00:48:28.357Z,16.93
2018-06-02T00:49:28.327Z,16.90
2018-06-02T00:50:28.297Z,16.90
2018-06-02T00:51:28.271Z,16.96
2018-06-02T00:52:28.242Z,16.97
2018-06-02T00:53:28.226Z,16.96
2018-06-02T00:54:28.195Z,16.89
2018-06-02T00:55:28.168Z,17.02
2018-06-02T00:56:28.152Z,17.08
2018-06-02T00:57:28.125Z,16.93
2018-06-02T00:58:28.102Z,16.97
2018-06-02T00:59:28.076Z,16.91
2018-06-02T01:00:28.049Z,16.97
2018-06-02T01:01:28.028Z,16.99
2018-06-02T01:02:28.005Z,17.02
2018-06-02T01:03:27.973Z,17.05
2018-06-02T01:04:27.963Z,17.15
2018-06-02T01:05:27.964Z,17.09
2018-06-02T01:06:27.904Z,17.09
2018-06-02T01:07:27.879Z,17.14
2018-06-02T01:08:27.852Z,17.15
2018-06-02T01:09:27.835Z,17.12
2018-06-02T01:10:27.803Z,17.19
2018-06-02T01:11:27.778Z,17.14
2018-06-02T01:12:27.771Z,17.33
2018-06-02T01:13:27.727Z,17.24
2018-06-02T01:14:27.706Z,17.12
2018-06-02T01:15:27.683Z,17.14
2018-06-02T01:16:27.653Z,17.16
2018-06-02T01:17:27.635Z,17.06
2018-06-02T01:18:27.601Z,17.06
2018-06-02T01:19:27.576Z,17.05
2018-06-02T01:20:27.560Z,17.11
2018-06-02T01:21:27.527Z,17.08
2018-06-02T01:22:27.511Z,17.14
2018-06-02T01:23:27.489Z,17.08
2018-06-02T01:24:27.454Z,17.14
2018-06-02T01:25:27.433Z,17.12
2018-06-02T01:26:27.416Z,17.20
2018-06-02T01:27:27.380Z,17.15
2018-06-02T01:28:27.363Z,17.12
2018-06-02T01:29:27.343Z,16.97
2018-06-02T01:30:27.310Z,17.06
2018-06-02T01:31:27.287Z,17.05
2018-06-02T01:32:27.259Z,17.05
2018-06-02T01:33:27.231Z,17.11
2018-06-02T01:34:27.218Z,17.12
2018-06-02T01:35:27.188Z,17.19
2018-06-02T01:36:27.170Z,17.22
2018-06-02T01:37:27.142Z,17.29
2018-06-02T01:38:27.110Z,17.24
2018-06-02T01:39:27.094Z,17.20
2018-06-02T01:40:27.069Z,17.14
2018-06-02T01:41:27.038Z,17.02
2018-06-02T01:42:27.017Z,17.01
2018-06-02T01:43:26.996Z,17.09
2018-06-02T01:44:26.961Z,17.11
2018-06-02T01:45:26.941Z,17.02
2018-06-02T01:46:26.912Z,16.99
2018-06-02T01:47:26.900Z,16.90
2018-06-02T01:48:26.866Z,16.93
2018-06-02T01:49:26.852Z,16.86
2018-06-02T01:50:26.815Z,16.90
2018-06-02T01:51:26.794Z,16.94
2018-06-02T01:52:26.768Z,16.91
2018-06-02T01:53:26.738Z,16.90
2018-06-02T01:54:26.739Z,16.90
2018-06-02T01:55:26.693Z,16.91
2018-06-02T01:56:26.668Z,16.91
2018-06-02T01:57:26.649Z,16.90
2018-06-02T01:58:26.618Z,16.97
2018-06-02T01:59:26.591Z,16.86
2018-06-02T02:00:26.578Z,17.09
2018-06-02T02:01:26.550Z,16.91
2018-06-02T02:02:26.529Z,16.97
2018-06-02T02:03:26.503Z,17.04
2018-06-02T02:04:26.480Z,16.96
2018-06-02T02:05:26.450Z,17.02
2018-06-02T02:06:26.430Z,17.02
2018-06-02T02:07:26.403Z,17.02
2018-06-02T02:08:26.370Z,17.02
2018-06-02T02:09:26.356Z,17.05
2018-06-02T02:10:26.319Z,17.06
2018-06-02T02:11:26.304Z,17.01
2018-06-02T02:12:26.277Z,17.02
2018-06-02T02:13:26.249Z,17.06
2018-06-02T02:14:26.225Z,17.11
2018-06-02T02:15:26.864Z,17.11
2018-06-02T02:16:27.002Z,17.01
2018-06-02T02:17:26.422Z,16.99
2018-06-02T02:18:26.901Z,16.96
2018-06-02T02:19:26.904Z,16.93
2018-06-02T02:20:26.903Z,16.94
2018-06-02T02:21:26.843Z,17.05
2018-06-02T02:22:26.896Z,16.94
2018-06-02T02:23:26.566Z,16.91
2018-06-02T02:24:26.955Z,16.97
2018-06-02T02:25:26.869Z,17.14
2018-06-02T02:26:26.903Z,17.06
2018-06-02T02:27:26.912Z,17.12
2018-06-02T02:28:26.410Z,17.19
2018-06-02T02:29:25.862Z,17.15
2018-06-02T02:30:25.832Z,17.24
2018-06-02T02:31:25.805Z,17.20
2018-06-02T02:32:25.781Z,17.22
2018-06-02T02:33:25.753Z,17.09
2018-06-02T02:34:25.738Z,17.08
2018-06-02T02:35:25.709Z,17.06
2018-06-02T02:36:25.693Z,17.12
2018-06-02T02:37:25.662Z,17.04
2018-06-02T02:38:25.633Z,17.01
2018-06-02T02:39:25.612Z,17.02
2018-06-02T02:40:25.587Z,16.99
2018-06-02T02:41:25.571Z,16.99
2018-06-02T02:42:25.549Z,17.06
2018-06-02T02:43:25.515Z,16.97
2018-06-02T02:44:25.537Z,17.04
2018-06-02T02:45:25.466Z,16.90
2018-06-02T02:46:25.437Z,16.89
2018-06-02T02:47:25.421Z,16.90
2018-06-02T02:48:25.389Z,16.91
2018-06-02T02:49:25.399Z,16.93
2018-06-02T02:50:25.344Z,16.89
2018-06-02T02:51:25.313Z,16.93
2018-06-02T02:52:25.294Z,16.91
2018-06-02T02:53:25.276Z,16.91
2018-06-02T02:54:25.248Z,16.97
2018-06-02T02:55:25.220Z,16.97
2018-06-02T02:56:25.196Z,16.99
2018-06-02T02:57:25.168Z,16.90
2018-06-02T02:58:25.148Z,16.93
2018-06-02T02:59:25.130Z,17.01
2018-06-02T03:00:25.099Z,17.04
2018-06-02T03:01:25.113Z,17.11
2018-06-02T03:02:25.048Z,17.08
2018-06-02T03:03:25.027Z,17.11
2018-06-02T03:04:25.003Z,17.12
2018-06-02T03:05:25.015Z,17.09
2018-06-02T03:06:24.950Z,17.20
2018-06-02T03:07:24.921Z,17.33
2018-06-02T03:08:24.902Z,17.29
2018-06-02T03:09:24.870Z,17.19
2018-06-02T03:10:24.857Z,17.20
2018-06-02T03:11:24.881Z,17.09
2018-06-02T03:12:24.862Z,17.12
2018-06-02T03:13:24.784Z,17.16
2018-06-02T03:14:24.746Z,17.14
2018-06-02T03:15:24.773Z,17.14
2018-06-02T03:16:24.701Z,17.12
2018-06-02T03:17:24.720Z,17.06
2018-06-02T03:18:24.697Z,17.12
2018-06-02T03:19:24.626Z,17.14
2018-06-02T03:20:24.605Z,17.04
2018-06-02T03:21:24.585Z,17.08
2018-06-02T03:22:24.549Z,17.08
2018-06-02T03:23:24.539Z,16.99
2018-06-02T03:24:24.503Z,17.11
2018-06-02T03:25:24.484Z,17.01
2018-06-02T03:26:24.454Z,17.11
2018-06-02T03:27:24.430Z,17.05
2018-06-02T03:28:24.414Z,17.09
2018-06-02T03:29:24.389Z,17.14
2018-06-02T03:30:24.363Z,17.09
2018-06-02T03:31:24.332Z,17.06
2018-06-02T03:32:24.302Z,17.02
2018-06-02T03:33:24.282Z,17.09
2018-06-02T03:34:24.257Z,17.02
2018-06-02T03:35:24.232Z,17.08
2018-06-02T03:36:24.216Z,17.15
2018-06-02T03:37:24.187Z,17.09
2018-06-02T03:38:24.160Z,17.12
2018-06-02T03:39:24.142Z,17.11
2018-06-02T03:40:24.108Z,17.22
2018-06-02T03:41:24.091Z,17.16
2018-06-02T03:42:24.060Z,17.20
2018-06-02T03:43:24.040Z,17.20
2018-06-02T03:44:24.016Z,17.14
2018-06-02T03:45:23.987Z,17.31
2018-06-02T03:46:23.968Z,17.30
2018-06-02T03:47:23.944Z,17.24
2018-06-02T03:48:23.913Z,17.24
2018-06-02T03:49:23.897Z,17.27
2018-06-02T03:50:23.865Z,17.31
2018-06-02T03:51:23.841Z,17.31
2018-06-02T03:52:23.824Z,17.27
2018-06-02T03:53:23.791Z,17.30
2018-06-02T03:54:23.772Z,17.24
2018-06-02T03:55:23.744Z,17.19
2018-06-02T03:56:23.717Z,17.22
2018-06-02T03:57:23.699Z,17.15
2018-06-02T03:58:23.669Z,17.20
2018-06-02T03:59:23.644Z,17.19
2018-06-02T04:00:23.624Z,17.30
2018-06-02T04:01:23.595Z,17.29
2018-06-02T04:02:23.575Z,17.36
2018-06-02T04:03:23.547Z,17.30
2018-06-02T04:04:23.522Z,17.44
2018-06-02T04:05:23.494Z,17.41
2018-06-02T04:06:23.477Z,17.34
2018-06-02T04:07:23.447Z,17.30
2018-06-02T04:08:23.427Z,17.30
2018-06-02T04:09:23.404Z,17.31
2018-06-02T04:10:23.373Z,17.29
2018-06-02T04:11:23.355Z,17.34
2018-06-02T04:12:23.324Z,17.29
2018-06-02T04:13:23.309Z,17.39
2018-06-02T04:14:23.287Z,17.34
2018-06-02T04:15:23.251Z,17.30
2018-06-02T04:16:23.235Z,17.44
2018-06-02T04:17:23.204Z,17.34
2018-06-02T04:18:23.179Z,17.36
2018-06-02T04:19:23.160Z,17.44
2018-06-02T04:20:23.124Z,17.42
2018-06-02T04:21:23.104Z,17.45
2018-06-02T04:22:23.086Z,17.44
2018-06-02T04:23:23.055Z,17.39
2018-06-02T04:24:23.039Z,17.42
2018-06-02T04:25:23.016Z,17.39
2018-06-02T04:26:22.985Z,17.48
2018-06-02T04:27:22.957Z,17.39
2018-06-02T04:28:22.939Z,17.54
2018-06-02T04:29:22.910Z,17.52
2018-06-02T04:30:22.892Z,17.54
2018-06-02T04:31:22.865Z,17.56
2018-06-02T04:32:22.841Z,17.64
2018-06-02T04:33:22.809Z,17.67
2018-06-02T04:34:22.797Z,17.63
2018-06-02T04:35:22.772Z,17.65
2018-06-02T04:36:23.374Z,17.54
2018-06-02T04:37:22.715Z,17.38
2018-06-02T04:38:22.691Z,17.45
2018-06-02T04:39:22.666Z,17.49
2018-06-02T04:40:22.642Z,17.42
2018-06-02T04:41:22.617Z,17.38
2018-06-02T04:42:22.594Z,17.45
2018-06-02T04:43:22.620Z,17.41
2018-06-02T04:44:22.544Z,17.49
2018-06-02T04:45:22.516Z,17.42
2018-06-02T04:46:22.489Z,17.46
2018-06-02T04:47:22.476Z,17.39
2018-06-02T04:48:22.459Z,17.42
2018-06-02T04:49:22.433Z,17.51
2018-06-02T04:50:22.397Z,17.48
2018-06-02T04:51:22.377Z,17.51
2018-06-02T04:52:22.348Z,17.45
2018-06-02T04:53:22.331Z,17.48
2018-06-02T04:54:22.298Z,17.46
2018-06-02T04:55:22.279Z,17.51
2018-06-02T04:56:22.256Z,17.54
2018-06-02T04:57:22.226Z,17.65
2018-06-02T04:58:22.216Z,17.59
2018-06-02T04:59:22.174Z,17.65
2018-06-02T05:00:22.165Z,17.68
2018-06-02T05:01:22.124Z,17.76
2018-06-02T05:02:22.111Z,17.68
2018-06-02T05:03:22.083Z,17.70
2018-06-02T05:04:22.063Z,17.72
2018-06-02T05:05:22.032Z,17.65
2018-06-02T05:06:22.014Z,17.79
2018-06-02T05:07:21.985Z,17.82
2018-06-02T05:08:21.961Z,17.59
2018-06-02T05:09:21.931Z,17.41
2018-06-02T05:10:21.915Z,17.51
2018-06-02T05:11:21.886Z,17.45
2018-06-02T05:12:21.863Z,17.44
2018-06-02T05:13:21.861Z,17.45
2018-06-02T05:14:21.824Z,17.36
2018-06-02T05:15:21.793Z,17.52
2018-06-02T05:16:21.762Z,17.64
2018-06-02T05:17:22.446Z,17.56
2018-06-02T05:18:21.716Z,17.52
2018-06-02T05:19:21.705Z,17.41
2018-06-02T05:20:21.671Z,17.42
2018-06-02T05:21:21.649Z,17.41
2018-06-02T05:22:21.618Z,17.60
2018-06-02T05:23:21.601Z,17.38
2018-06-02T05:24:21.563Z,17.46
2018-06-02T05:25:21.543Z,17.60
2018-06-02T05:26:21.521Z,17.49
2018-06-02T05:27:21.497Z,17.59
2018-06-02T05:28:21.480Z,17.76
2018-06-02T05:29:21.449Z,17.65
2018-06-02T05:30:21.420Z,17.74
2018-06-02T05:31:21.399Z,17.83
2018-06-02T05:32:21.380Z,17.86
2018-06-02T05:33:21.350Z,17.78
2018-06-02T05:34:21.329Z,17.79
2018-06-02T05:35:21.358Z,17.79
2018-06-02T05:36:21.273Z,17.78
2018-06-02T05:37:21.255Z,17.65
2018-06-02T05:38:21.225Z,17.70
2018-06-02T05:39:21.204Z,17.78
2018-06-02T05:40:21.175Z,17.86
2018-06-02T05:41:21.155Z,17.76
2018-06-02T05:42:21.130Z,17.79
2018-06-02T05:43:21.105Z,17.72
2018-06-02T05:44:21.081Z,17.70
2018-06-02T05:45:21.056Z,17.79
2018-06-02T05:46:21.033Z,17.72
2018-06-02T05:47:21.009Z,17.80
2018-06-02T05:48:20.984Z,17.80
2018-06-02T05:49:20.968Z,17.76
2018-06-02T05:50:20.935Z,17.78
2018-06-02T05:51:20.919Z,17.79
2018-06-02T05:52:20.884Z,17.76
2018-06-02T05:53:20.866Z,17.76
2018-06-02T05:54:20.840Z,17.71
2018-06-02T05:55:20.819Z,17.79
2018-06-02T05:56:20.785Z,17.82
2018-06-02T05:57:20.772Z,17.67
2018-06-02T05:58:20.739Z,17.72
2018-06-02T05:59:20.730Z,17.72
2018-06-02T06:00:20.694Z,17.74
2018-06-02T06:01:20.665Z,17.82
2018-06-02T06:02:20.657Z,17.76
2018-06-02T06:03:20.628Z,17.70
2018-06-02T06:04:20.603Z,17.70
2018-06-02T06:05:20.587Z,17.82
2018-06-02T06:06:20.547Z,17.67
2018-06-02T06:07:20.527Z,17.74
2018-06-02T06:08:20.509Z,17.83
2018-06-02T06:09:20.479Z,17.67
2018-06-02T06:10:20.452Z,17.67
2018-06-02T06:11:20.426Z,17.63
2018-06-02T06:12:20.398Z,17.65
2018-06-02T06:13:20.375Z,17.60
2018-06-02T06:14:20.348Z,17.70
2018-06-02T06:15:20.331Z,17.63
2018-06-02T06:16:20.311Z,17.70
2018-06-02T06:17:20.283Z,17.67
2018-06-02T06:18:20.254Z,17.65
2018-06-02T06:19:20.228Z,17.64
2018-06-02T06:20:20.206Z,17.65
2018-06-02T06:21:20.187Z,17.60
2018-06-02T06:22:20.155Z,17.67
2018-06-02T06:23:20.133Z,17.79
2018-06-02T06:24:20.117Z,17.71
2018-06-02T06:25:20.092Z,17.79
2018-06-02T06:26:20.064Z,17.74
2018-06-02T06:27:20.062Z,17.80
2018-06-02T06:28:20.024Z,17.83
2018-06-02T06:29:20.009Z,17.83
2018-06-02T06:30:19.961Z,17.89
2018-06-02T06:31:19.938Z,17.92
2018-06-02T06:32:19.911Z,17.98
2018-06-02T06:33:19.889Z,18.04
2018-06-02T06:34:19.868Z,18.00
2018-06-02T06:35:19.840Z,17.98
2018-06-02T06:36:19.819Z,18.07
2018-06-02T06:37:19.793Z,18.18
2018-06-02T06:38:19.776Z,18.34
2018-06-02T06:39:19.740Z,18.38
2018-06-02T06:40:19.719Z,18.29
2018-06-02T06:41:19.697Z,18.33
2018-06-02T06:42:19.676Z,18.26
2018-06-02T06:43:19.654Z,18.16
2018-06-02T06:44:19.630Z,18.22
2018-06-02T06:45:19.614Z,18.22
2018-06-02T06:46:19.590Z,18.40
2018-06-02T06:47:19.557Z,18.45
2018-06-02T06:48:19.525Z,18.49
2018-06-02T06:49:19.511Z,18.55
2018-06-02T06:50:19.478Z,18.58
2018-06-02T06:51:19.459Z,18.58
2018-06-02T06:52:19.426Z,18.53
2018-06-02T06:53:19.408Z,18.44
2018-06-02T06:54:19.381Z,18.40
2018-06-02T06:55:19.354Z,18.43
2018-06-02T06:56:19.330Z,18.29
2018-06-02T06:57:19.310Z,18.41
2018-06-02T06:58:19.285Z,18.45
2018-06-02T06:59:19.270Z,18.52
2018-06-02T07:00:19.237Z,18.55
2018-06-02T07:01:19.208Z,18.55
2018-06-02T07:02:19.191Z,18.52
2018-06-02T07:03:19.168Z,18.53
2018-06-02T07:04:19.141Z,18.49
2018-06-02T07:05:19.117Z,18.50
2018-06-02T07:06:19.157Z,18.52
2018-06-02T07:07:19.065Z,18.49
2018-06-02T07:08:19.046Z,18.50
2018-06-02T07:09:19.021Z,18.43
2018-06-02T07:10:18.995Z,18.40
2018-06-02T07:11:18.975Z,18.52
2018-06-02T07:12:18.942Z,18.43
2018-06-02T07:13:18.919Z,18.49
2018-06-02T07:14:18.902Z,18.47
2018-06-02T07:15:18.886Z,18.40
2018-06-02T07:16:18.856Z,18.37
2018-06-02T07:17:18.823Z,18.44
2018-06-02T07:18:18.806Z,18.45
2018-06-02T07:19:18.796Z,18.41
2018-06-02T07:20:18.753Z,18.43
2018-06-02T07:21:18.734Z,18.52
2018-06-02T07:22:18.707Z,18.49
2018-06-02T07:23:18.694Z,18.45
2018-06-02T07:24:18.660Z,18.62
2018-06-02T07:25:18.638Z,18.58
2018-06-02T07:26:18.613Z,18.55
2018-06-02T07:27:18.589Z,18.56
2018-06-02T07:28:18.560Z,18.71
2018-06-02T07:29:18.543Z,18.66
2018-06-02T07:30:18.515Z,18.63
2018-06-02T07:31:18.504Z,18.65
2018-06-02T07:32:18.479Z,18.70
2018-06-02T07:33:18.457Z,18.75
2018-06-02T07:34:18.416Z,18.77
2018-06-02T07:35:18.412Z,18.84
2018-06-02T07:36:18.375Z,18.86
2018-06-02T07:37:18.346Z,18.83
2018-06-02T07:38:18.357Z,18.95
2018-06-02T07:39:18.298Z,19.07
2018-06-02T07:40:18.279Z,19.21
2018-06-02T07:41:18.256Z,19.37
2018-06-02T07:42:18.228Z,19.27
2018-06-02T07:43:18.216Z,19.30
2018-06-02T07:44:18.189Z,19.34
2018-06-02T07:45:18.152Z,19.41
2018-06-02T07:46:18.136Z,19.37
2018-06-02T07:47:18.116Z,19.36
2018-06-02T07:48:18.082Z,19.37
2018-06-02T07:49:18.065Z,19.47
2018-06-02T07:50:18.034Z,19.39
2018-06-02T07:51:18.012Z,19.34
2018-06-02T07:52:17.991Z,19.39
2018-06-02T07:53:17.971Z,19.31
2018-06-02T07:54:17.942Z,19.40
2018-06-02T07:55:17.959Z,19.34
2018-06-02T07:56:17.895Z,19.31
2018-06-02T07:57:17.882Z,19.21
2018-06-02T07:58:17.840Z,19.18
2018-06-02T07:59:17.825Z,19.18
2018-06-02T08:00:17.800Z,19.21
2018-06-02T08:01:17.774Z,19.31
2018-06-02T08:02:17.756Z,19.31
2018-06-02T08:03:17.730Z,19.21
2018-06-02T08:04:17.702Z,19.15
2018-06-02T08:05:17.677Z,19.14
2018-06-02T08:06:17.656Z,19.11
2018-06-02T08:07:17.635Z,19.14
2018-06-02T08:08:17.610Z,19.00
2018-06-02T08:09:17.583Z,19.07
2018-06-02T08:10:17.572Z,18.93
2018-06-02T08:11:17.544Z,18.99
2018-06-02T08:12:17.511Z,18.88
2018-06-02T08:13:17.495Z,18.95
2018-06-02T08:14:17.463Z,18.81
2018-06-02T08:15:17.443Z,18.80
2018-06-02T08:16:17.420Z,18.80
2018-06-02T08:17:17.395Z,18.88
2018-06-02T08:18:17.369Z,18.84
2018-06-02T08:19:17.345Z,18.93
2018-06-02T08:20:17.318Z,18.89
2018-06-02T08:21:17.296Z,18.98
2018-06-02T08:22:17.270Z,18.99
2018-06-02T08:23:17.247Z,18.99
2018-06-02T08:24:17.247Z,18.86
2018-06-02T08:25:17.202Z,18.88
2018-06-02T08:26:17.183Z,18.90
2018-06-02T08:27:17.161Z,19.00
2018-06-02T08:28:17.132Z,18.95
2018-06-02T08:29:17.102Z,18.86
2018-06-02T08:30:17.087Z,18.84
2018-06-02T08:31:17.062Z,18.80
2018-06-02T08:32:17.076Z,18.89
2018-06-02T08:33:17.014Z,18.84
2018-06-02T08:34:16.990Z,18.90
2018-06-02T08:35:16.971Z,18.88
2018-06-02T08:36:16.946Z,18.96
2018-06-02T08:37:16.912Z,18.99
2018-06-02T08:38:16.896Z,19.08
2018-06-02T08:39:16.873Z,19.15
2018-06-02T08:40:16.843Z,19.15
2018-06-02T08:41:16.825Z,19.15
2018-06-02T08:42:16.796Z,19.04
2018-06-02T08:43:16.771Z,18.93
2018-06-02T08:44:16.749Z,18.88
2018-06-02T08:45:16.727Z,18.84
2018-06-02T08:46:16.698Z,18.83
2018-06-02T08:47:16.680Z,18.78
2018-06-02T08:48:16.658Z,18.80
2018-06-02T08:49:16.627Z,18.73
2018-06-02T08:50:16.608Z,18.77
2018-06-02T08:51:16.585Z,18.70
2018-06-02T08:52:16.552Z,18.74
2018-06-02T08:53:16.531Z,18.70
2018-06-02T08:54:16.511Z,18.63
2018-06-02T08:55:16.481Z,18.68
2018-06-02T08:56:16.467Z,18.60
2018-06-02T08:57:16.441Z,18.63
2018-06-02T08:58:16.411Z,18.55
2018-06-02T08:59:16.394Z,18.55
2018-06-02T09:00:16.371Z,18.59
2018-06-02T09:01:16.345Z,18.56
2018-06-02T09:02:16.318Z,18.60
2018-06-02T09:03:16.312Z,18.50
2018-06-02T09:04:16.296Z,18.49
2018-06-02T09:05:16.264Z,18.38
2018-06-02T09:06:16.237Z,18.47
2018-06-02T09:07:16.195Z,18.49
2018-06-02T09:08:16.194Z,18.66
2018-06-02T09:09:16.169Z,18.74
2018-06-02T09:10:16.142Z,18.88
2018-06-02T09:11:16.127Z,18.88
2018-06-02T09:12:16.117Z,18.93
2018-06-02T09:13:16.093Z,19.00
2018-06-02T09:14:16.051Z,18.93
2018-06-02T09:15:16.021Z,18.96
2018-06-02T09:16:15.983Z,18.99
2018-06-02T09:17:16.002Z,18.93
2018-06-02T09:18:15.934Z,18.98
2018-06-02T09:19:15.909Z,18.99
2018-06-02T09:20:15.891Z,18.95
2018-06-02T09:21:15.860Z,19.07
2018-06-02T09:22:15.841Z,18.98
2018-06-02T09:23:15.814Z,19.09
2018-06-02T09:24:15.785Z,19.26
2018-06-02T09:25:15.770Z,19.34
2018-06-02T09:26:15.739Z,19.36
2018-06-02T09:27:15.715Z,19.39
2018-06-02T09:28:15.702Z,19.45
2018-06-02T09:29:15.670Z,19.58
2018-06-02T09:30:16.506Z,19.58
2018-06-02T09:31:15.624Z,19.58
2018-06-02T09:32:15.602Z,19.59
2018-06-02T09:33:15.572Z,19.67
2018-06-02T09:34:15.557Z,19.74
2018-06-02T09:35:15.593Z,19.74
2018-06-02T09:36:15.507Z,19.85
2018-06-02T09:37:15.478Z,19.99
2018-06-02T09:38:15.460Z,19.84
2018-06-02T09:39:15.436Z,19.73
2018-06-02T09:40:15.407Z,19.73
2018-06-02T09:41:15.385Z,19.66
2018-06-02T09:42:15.369Z,19.64
2018-06-02T09:43:15.336Z,19.73
2018-06-02T09:44:15.318Z,19.79
2018-06-02T09:45:15.298Z,19.82
2018-06-02T09:46:15.266Z,19.74
2018-06-02T09:47:15.248Z,19.77
2018-06-02T09:48:15.217Z,19.73
2018-06-02T09:49:15.196Z,19.77
2018-06-02T09:50:15.179Z,19.86
2018-06-02T09:51:15.147Z,19.86
2018-06-02T09:52:15.131Z,19.96
2018-06-02T09:53:15.106Z,20.14
2018-06-02T09:54:15.081Z,20.10
2018-06-02T09:55:15.064Z,20.25
2018-06-02T09:56:15.033Z,20.25
2018-06-02T09:57:15.014Z,20.36
2018-06-02T09:58:14.993Z,20.50
2018-06-02T09:59:14.960Z,20.48
2018-06-02T10:00:14.947Z,20.60
2018-06-02T10:01:14.918Z,20.59
2018-06-02T10:02:14.890Z,20.58
2018-06-02T10:03:14.877Z,20.58
2018-06-02T10:04:14.843Z,20.52
2018-06-02T10:05:14.820Z,20.63
2018-06-02T10:06:14.801Z,20.67
2018-06-02T10:07:14.772Z,20.88
2018-06-02T10:08:14.754Z,21.03
2018-06-02T10:09:14.733Z,21.05
2018-06-02T10:10:14.702Z,21.20
2018-06-02T10:11:14.685Z,21.22
2018-06-02T10:12:14.674Z,21.27
2018-06-02T10:13:14.631Z,21.35
2018-06-02T10:14:14.614Z,21.42
2018-06-02T10:15:14.590Z,21.33
2018-06-02T10:16:14.562Z,21.33
2018-06-02T10:17:14.547Z,21.33
2018-06-02T10:18:14.520Z,21.27
2018-06-02T10:19:14.498Z,21.33
2018-06-02T10:20:14.477Z,21.32
2018-06-02T10:21:14.456Z,21.40
2018-06-02T10:22:14.422Z,21.42
2018-06-02T10:23:14.424Z,21.46
2018-06-02T10:24:14.383Z,21.39
2018-06-02T10:25:14.356Z,21.29
2018-06-02T10:26:14.342Z,21.15
2018-06-02T10:27:15.014Z,20.97
2018-06-02T10:28:14.287Z,20.95
2018-06-02T10:29:14.268Z,20.96
2018-06-02T10:30:14.241Z,20.88
2018-06-02T10:31:14.216Z,20.92
2018-06-02T10:32:14.205Z,20.82
2018-06-02T10:33:14.183Z,20.84
2018-06-02T10:34:14.156Z,20.81
2018-06-02T10:35:14.126Z,20.65
2018-06-02T10:36:14.112Z,20.55
2018-06-02T10:37:14.084Z,20.62
2018-06-02T10:38:14.059Z,20.65
2018-06-02T10:39:14.048Z,20.59
2018-06-02T10:40:14.009Z,20.55
2018-06-02T10:41:13.994Z,20.55
2018-06-02T10:42:13.977Z,20.66
2018-06-02T10:43:13.949Z,20.69
2018-06-02T10:44:13.929Z,20.66
2018-06-02T10:45:13.909Z,20.88
2018-06-02T10:46:13.873Z,20.81
2018-06-02T10:47:13.858Z,20.88
2018-06-02T10:48:13.825Z,20.84
2018-06-02T10:49:13.810Z,20.84
2018-06-02T10:50:13.788Z,20.69
2018-06-02T10:51:13.808Z,20.66
2018-06-02T10:52:13.736Z,20.65
2018-06-02T10:53:13.719Z,20.65
2018-06-02T10:54:13.689Z,20.65
2018-06-02T10:55:13.670Z,20.72
2018-06-02T10:56:13.638Z,20.72
2018-06-02T10:57:13.615Z,20.77
2018-06-02T10:58:13.604Z,20.75
2018-06-02T10:59:13.579Z,20.82
2018-06-02T11:00:13.551Z,21.05
2018-06-02T11:01:13.534Z,21.02
2018-06-02T11:02:13.498Z,21.20
2018-06-02T11:03:13.482Z,21.25
2018-06-02T11:04:13.456Z,21.30
2018-06-02T11:05:13.437Z,21.37
2018-06-02T11:06:13.426Z,21.36
2018-06-02T11:07:13.385Z,21.50
2018-06-02T11:08:13.381Z,21.36
2018-06-02T11:09:13.343Z,21.36
2018-06-02T11:10:13.325Z,21.35
2018-06-02T11:11:13.299Z,21.33
2018-06-02T11:12:13.268Z,21.35
2018-06-02T11:13:13.254Z,21.37
2018-06-02T11:14:13.221Z,21.20
2018-06-02T11:15:13.204Z,21.17
2018-06-02T11:16:13.188Z,21.21
2018-06-02T11:17:13.165Z,21.15
2018-06-02T11:18:13.138Z,21.11
2018-06-02T11:19:13.115Z,21.07
2018-06-02T11:20:13.085Z,21.03
2018-06-02T11:21:13.069Z,20.88
2018-06-02T11:22:13.044Z,20.95
2018-06-02T11:23:13.027Z,21.03
2018-06-02T11:24:12.987Z,21.20
2018-06-02T11:25:12.992Z,21.29
2018-06-02T11:26:12.949Z,21.30
2018-06-02T11:27:12.928Z,21.37
2018-06-02T11:28:12.904Z,21.40
2018-06-02T11:29:12.880Z,21.42
2018-06-02T11:30:12.855Z,21.46
2018-06-02T11:31:12.832Z,21.51
2018-06-02T11:32:12.804Z,21.66
2018-06-02T11:33:12.791Z,21.66
2018-06-02T11:34:12.761Z,21.67
2018-06-02T11:35:12.738Z,21.67
2018-06-02T11:36:12.727Z,21.75
2018-06-02T11:37:12.697Z,22.00
2018-06-02T11:38:12.677Z,22.02
2018-06-02T11:39:12.647Z,22.11
2018-06-02T11:40:12.631Z,21.99
2018-06-02T11:41:12.595Z,21.96
2018-06-02T11:42:12.585Z,22.07
2018-06-02T11:43:12.560Z,22.15
2018-06-02T11:44:12.594Z,22.23
2018-06-02T11:45:12.515Z,22.17
2018-06-02T11:46:12.483Z,22.20
2018-06-02T11:47:12.505Z,22.14
2018-06-02T11:48:12.445Z,21.99
2018-06-02T11:49:12.420Z,22.02
2018-06-02T11:50:12.396Z,22.08
2018-06-02T11:51:12.382Z,21.99
2018-06-02T11:52:12.345Z,21.99
2018-06-02T11:53:12.345Z,22.04
2018-06-02T11:54:12.315Z,22.11
2018-06-02T11:55:12.286Z,22.25
2018-06-02T11:56:12.255Z,22.29
2018-06-02T11:57:12.239Z,22.30
2018-06-02T11:58:12.221Z,22.26
2018-06-02T11:59:12.207Z,22.28
2018-06-02T12:00:12.172Z,22.44
2018-06-02T12:01:12.149Z,22.66
2018-06-02T12:02:12.120Z,22.81
2018-06-02T12:03:12.108Z,22.90
2018-06-02T12:04:12.084Z,22.94
2018-06-02T12:05:12.060Z,23.00
2018-06-02T12:06:12.028Z,23.15
2018-06-02T12:07:12.011Z,23.12
2018-06-02T12:08:11.986Z,23.00
2018-06-02T12:09:11.965Z,22.96
2018-06-02T12:10:11.946Z,22.99
2018-06-02T12:11:11.930Z,23.21
2018-06-02T12:12:11.897Z,23.18
2018-06-02T12:13:11.869Z,23.21
2018-06-02T12:14:11.855Z,23.32
2018-06-02T12:15:11.829Z,23.25
2018-06-02T12:16:11.810Z,23.18
2018-06-02T12:17:11.787Z,23.15
2018-06-02T12:18:11.759Z,23.28
2018-06-02T12:19:11.742Z,23.40
2018-06-02T12:20:11.716Z,23.41
2018-06-02T12:21:11.690Z,23.47
2018-06-02T12:22:11.682Z,23.48
2018-06-02T12:23:11.653Z,23.59
2018-06-02T12:24:11.632Z,23.58
2018-06-02T12:25:11.610Z,23.58
2018-06-02T12:26:11.581Z,23.47
2018-06-02T12:27:11.564Z,23.62
2018-06-02T12:28:11.586Z,23.71
2018-06-02T12:29:11.516Z,23.88
2018-06-02T12:30:11.491Z,24.06
2018-06-02T12:31:11.467Z,23.99
2018-06-02T12:32:11.449Z,23.91
2018-06-02T12:33:11.432Z,23.96
2018-06-02T12:34:11.407Z,23.88
2018-06-02T12:35:11.383Z,23.86
2018-06-02T12:36:11.363Z,23.73
2018-06-02T12:37:11.345Z,23.87
2018-06-02T12:38:11.315Z,23.87
2018-06-02T12:39:11.298Z,23.87
2018-06-02T12:40:11.301Z,23.78
2018-06-02T12:41:11.249Z,23.80
2018-06-02T12:42:11.236Z,23.69
2018-06-02T12:43:11.207Z,23.84
2018-06-02T12:44:11.190Z,23.88
2018-06-02T12:45:11.173Z,23.92
2018-06-02T12:46:11.146Z,23.80
2018-06-02T12:47:11.126Z,23.91
2018-06-02T12:48:11.108Z,23.93
2018-06-02T12:49:11.075Z,23.98
2018-06-02T12:50:11.055Z,24.06
2018-06-02T12:51:11.036Z,24.10
2018-06-02T12:52:11.009Z,24.16